Terminal Aerodrome Forecast
Issued by NWS

Home | Current Version | Previous Version | Text Only | Print | Product List | Glossary On
Versions: 1 2 3 4 5 6 7 8 9 10 11 12 13 14 15 16 17
000
FTUS45 KPSR 160500
TAFBLH
TAF
KBLH 160532Z 1606/1706 VRB04KT P6SM SKC
     FM162000 20008KT P6SM SKC=

USA.gov is the U.S. government's official web portal to all federal, state and local government web resources and services.